Time;durP1;ratioP1;P1;durP2;ratioP2;P2;SDS_P1;SDS_P2;PMS_P1;PMS_P2;Temp;Humidity;BMP_temperature;BMP_pressure;BME280_temperature;BME280_humidity;BME280_pressure;Samples;Min_cycle;Max_cycle;Signal;HPM_P1;HPM_P2
2022/11/17 00:00:34;;;;;;;7.82;4.35;;;;;;;10.04;90.58;98199.72;6149110;23;20327;-82
2022/11/17 00:03:01;;;;;;;9.98;6.25;;;;;;;10.04;90.19;98196.25;6125275;23;20461;-83
2022/11/17 00:05:28;;;;;;;8.52;4.93;;;;;;;10.02;90.52;98188.44;6147508;23;20023;-85
2022/11/17 00:07:55;;;;;;;7.13;4.10;;;;;;;10.04;90.64;98185.63;6125420;23;20025;-82
2022/11/17 00:10:21;;;;;;;6.82;4.60;;;;;;;10.02;90.83;98179.66;6124516;23;20083;-82
2022/11/17 00:15:33;;;;;;;8.57;4.97;;;;;;;9.98;91.43;98185.31;6130167;23;20021;-82
2022/11/17 00:23:46;;;;;;;13.52;5.72;;;;;;;10.02;91.52;98172.53;6149219;23;20049;-83
2022/11/17 00:26:21;;;;;;;14.65;6.85;;;;;;;9.96;91.25;98163.47;6103021;23;20009;-83
2022/11/17 00:28:56;;;;;;;31.52;7.63;;;;;;;9.93;91.07;98163.81;6174009;23;20071;-82
2022/11/17 00:34:20;;;;;;;16.00;6.75;;;;;;;9.92;91.24;98161.31;6128804;23;20060;-82
2022/11/17 00:36:52;;;;;;;13.85;6.18;;;;;;;9.93;91.30;98152.38;6149165;23;20017;-82
2022/11/17 00:39:20;;;;;;;10.85;6.40;;;;;;;9.98;90.98;98150.84;6149591;23;20032;-82
2022/11/17 00:41:47;;;;;;;8.60;4.82;;;;;;;9.97;91.45;98137.75;6148029;23;20344;-82
2022/11/17 00:44:14;;;;;;;7.38;4.03;;;;;;;10.02;91.44;98130.09;6173790;23;20120;-82
2022/11/17 00:46:41;;;;;;;6.70;4.32;;;;;;;10.03;91.35;98120.34;6149700;23;20081;-82
2022/11/17 00:49:09;;;;;;;6.60;3.55;;;;;;;10.05;91.24;98123.63;6124068;23;20024;-82
2022/11/17 00:51:36;;;;;;;7.25;3.92;;;;;;;10.04;91.39;98114.03;6172937;23;20021;-82
2022/11/17 00:54:04;;;;;;;8.80;4.13;;;;;;;10.04;91.58;98112.22;6148637;23;20318;-82
2022/11/17 00:56:31;;;;;;;7.18;4.30;;;;;;;10.03;91.14;98099.97;6173869;23;20025;-81
2022/11/17 00:58:58;;;;;;;9.07;5.10;;;;;;;10.06;91.81;98099.59;6172768;23;20445;-82
2022/11/17 01:01:26;;;;;;;16.50;6.80;;;;;;;10.06;91.48;98093.47;6173667;23;20027;-82
2022/11/17 01:04:01;;;;;;;16.30;6.53;;;;;;;10.02;91.88;98082.38;6149040;23;20021;-82
2022/11/17 01:06:37;;;;;;;23.50;8.55;;;;;;;10.02;91.93;98087.69;6078274;23;20040;-81
2022/11/17 01:09:19;;;;;;;17.65;7.25;;;;;;;9.94;92.33;98096.50;6147703;23;20020;-82
2022/11/17 01:11:47;;;;;;;52.90;14.30;;;;;;;10.06;92.26;98093.47;6098389;23;20084;-82
2022/11/17 01:14:17;;;;;;;45.33;12.70;;;;;;;10.08;91.98;98102.91;6145101;23;20021;-82
2022/11/17 01:16:44;;;;;;;33.63;11.10;;;;;;;10.11;91.98;98099.91;6139588;23;20021;-82
2022/11/17 01:19:15;;;;;;;21.30;8.32;;;;;;;10.09;92.29;98099.25;6124328;23;20091;-81
2022/11/17 01:21:42;;;;;;;17.52;7.97;;;;;;;10.12;92.31;98106.03;6094597;23;20022;-82
2022/11/17 01:24:10;;;;;;;15.65;5.65;;;;;;;10.18;91.86;98094.72;6147641;23;20534;-82
2022/11/17 01:26:38;;;;;;;9.35;5.00;;;;;;;10.20;91.27;98098.88;6098856;23;20353;-81
2022/11/17 01:29:05;;;;;;;8.15;4.40;;;;;;;10.20;91.45;98100.66;6145276;23;20021;-82
2022/11/17 01:31:35;;;;;;;11.50;5.25;;;;;;;10.16;91.59;98091.44;6094469;23;20338;-82
2022/11/17 01:34:01;;;;;;;6.68;4.30;;;;;;;10.14;91.48;98091.59;6118656;23;20120;-83
2022/11/17 01:39:18;;;;;;;9.23;4.20;;;;;;;10.10;91.94;98079.69;6059548;23;20028;-82
2022/11/17 01:41:45;;;;;;;6.78;4.03;;;;;;;10.11;92.03;98062.78;6147650;23;20076;-81
2022/11/17 01:44:34;;;;;;;9.77;5.47;;;;;;;10.01;92.79;98056.88;6123876;23;20028;-83
2022/11/17 01:47:03;;;;;;;14.45;6.40;;;;;;;10.11;92.52;98051.34;6047338;23;20022;-82
2022/11/17 01:49:30;;;;;;;25.48;9.10;;;;;;;10.14;92.54;98038.53;6119637;23;20025;-82
2022/11/17 01:52:02;;;;;;;23.58;8.00;;;;;;;10.17;92.43;98034.72;6142610;23;20067;-82
2022/11/17 01:54:30;;;;;;;17.02;5.57;;;;;;;10.15;92.53;98028.75;6118356;23;20022;-83
2022/11/17 01:57:00;;;;;;;6.68;3.72;;;;;;;10.12;92.60;98032.59;6124336;23;20021;-82
2022/11/17 01:59:35;;;;;;;8.25;4.50;;;;;;;10.10;92.92;98025.81;6172468;23;20021;-82
2022/11/17 02:02:02;;;;;;;10.13;4.63;;;;;;;10.13;93.37;98033.44;6120592;23;20017;-82
2022/11/17 02:04:34;;;;;;;9.27;4.38;;;;;;;10.16;92.83;98025.94;6145480;23;20029;-82
2022/11/17 02:07:12;;;;;;;8.27;4.45;;;;;;;10.08;93.16;97998.66;6118697;23;20084;-82
2022/11/17 02:09:39;;;;;;;10.07;4.38;;;;;;;10.18;92.68;97991.28;6069840;23;20010;-82
2022/11/17 02:12:08;;;;;;;9.48;4.38;;;;;;;10.18;92.52;97984.16;6146605;23;20113;-82
2022/11/17 02:14:35;;;;;;;11.57;4.97;;;;;;;10.18;92.60;97980.69;6169828;23;20385;-82
2022/11/17 02:17:02;;;;;;;6.53;3.90;;;;;;;10.18;92.90;97970.06;6137851;23;20349;-82
2022/11/17 02:19:41;;;;;;;7.85;4.55;;;;;;;10.18;92.57;97954.97;6125468;23;20016;-82
2022/11/17 02:22:38;;;;;;;10.30;4.57;;;;;;;10.10;93.24;97949.75;6123352;23;20028;-82
2022/11/17 02:25:23;;;;;;;10.27;4.75;;;;;;;10.07;93.71;97952.72;6131852;22;20021;-82
2022/11/17 02:28:08;;;;;;;6.90;4.25;;;;;;;10.05;93.04;97954.78;6176255;22;20040;-82
2022/11/17 02:30:55;;;;;;;10.90;4.63;;;;;;;10.04;93.28;97950.44;6148540;23;20021;-82
2022/11/17 02:33:47;;;;;;;9.35;4.65;;;;;;;10.16;92.77;97948.19;6169648;23;20083;-82
2022/11/17 02:36:57;;;;;;;6.82;3.63;;;;;;;9.99;94.06;97927.09;6049258;23;20087;-82
2022/11/17 02:39:43;;;;;;;6.90;3.58;;;;;;;10.12;93.34;97929.16;6052033;23;20084;-82
2022/11/17 02:44:02;;;;;;;6.85;3.60;;;;;;;10.13;93.34;97932.66;6095276;23;20393;-84
2022/11/17 02:45:20;;;;;;;7.75;4.47;;;;;;;10.10;93.81;97931.19;6174495;23;20453;-82
2022/11/17 02:47:47;;;;;;;7.13;3.55;;;;;;;10.13;93.89;97922.88;6121266;23;20021;-82
2022/11/17 02:50:14;;;;;;;4.63;3.50;;;;;;;10.14;93.48;97913.06;6144442;23;20029;-83
2022/11/17 02:52:41;;;;;;;4.05;3.63;;;;;;;10.14;93.07;97908.59;6096001;23;20036;-82
2022/11/17 02:55:09;;;;;;;6.38;3.35;;;;;;;10.13;93.74;97901.66;6096973;23;20022;-82
2022/11/17 02:57:38;;;;;;;9.63;3.30;;;;;;;10.14;93.57;97897.16;6172124;23;20025;-82
2022/11/17 03:00:09;;;;;;;6.22;3.17;;;;;;;10.14;93.44;97895.31;6120666;23;20080;-83
2022/11/17 03:03:02;;;;;;;7.45;4.13;;;;;;;10.13;93.65;97885.72;6101013;23;20027;-82
2022/11/17 03:05:42;;;;;;;6.72;3.92;;;;;;;10.09;93.84;97895.03;6100986;23;20032;-83
2022/11/17 03:08:31;;;;;;;5.70;3.40;;;;;;;9.98;93.91;97868.97;6079463;23;20021;-82
2022/11/17 03:11:01;;;;;;;5.93;3.72;;;;;;;10.12;93.25;97849.59;6125584;23;20025;-82
2022/11/17 03:13:46;;;;;;;7.25;4.00;;;;;;;10.09;93.16;97873.00;6174849;23;20048;-83
2022/11/17 03:16:32;;;;;;;6.00;3.40;;;;;;;9.99;93.47;97865.31;6150004;23;20028;-84
2022/11/17 03:19:20;;;;;;;6.70;3.55;;;;;;;10.07;93.36;97872.38;6125459;23;20024;-82
2022/11/17 03:22:09;;;;;;;7.65;3.53;;;;;;;10.08;93.66;97872.19;6126579;23;20017;-82
2022/11/17 03:24:39;;;;;;;5.70;3.67;;;;;;;10.11;93.28;97886.91;6100486;23;20025;-83
2022/11/17 03:27:14;;;;;;;4.95;2.83;;;;;;;10.10;93.60;97886.09;6125552;23;20095;-82
2022/11/17 03:29:43;;;;;;;6.32;2.95;;;;;;;10.12;93.91;97909.78;6113087;23;20027;-82
2022/11/17 03:32:10;;;;;;;3.55;2.70;;;;;;;10.14;93.90;97918.38;6148858;23;20079;-83
2022/11/17 03:34:45;;;;;;;8.25;3.33;;;;;;;10.07;94.13;97915.59;6149969;23;20075;-83
2022/11/17 03:37:12;;;;;;;6.13;3.25;;;;;;;10.11;94.15;97922.22;6174781;23;20029;-81
2022/11/17 03:39:45;;;;;;;4.18;2.97;;;;;;;10.10;94.56;97914.44;6149621;23;20033;-82
2022/11/17 03:42:17;;;;;;;3.50;2.60;;;;;;;10.08;94.43;97888.09;6148197;23;20028;-82
2022/11/17 03:44:48;;;;;;;5.78;3.45;;;;;;;10.09;94.50;97873.00;6125076;23;20068;-82
2022/11/17 03:47:16;;;;;;;8.10;3.97;;;;;;;10.13;93.96;97884.91;6122126;23;20045;-82
2022/11/17 03:50:27;;;;;;;9.70;4.63;;;;;;;10.02;94.90;97874.72;6170379;23;20028;-82
2022/11/17 03:52:54;;;;;;;8.70;4.30;;;;;;;10.07;94.55;97862.56;6008483;23;20080;-82
2022/11/17 03:55:26;;;;;;;8.95;4.80;;;;;;;10.07;94.53;97870.53;6149241;23;20526;-82
2022/11/17 03:57:53;;;;;;;15.60;4.13;;;;;;;10.10;94.79;97872.00;6149503;23;20023;-82
2022/11/17 04:00:20;;;;;;;14.48;6.47;;;;;;;10.12;94.66;97870.00;6148619;23;20075;-82
2022/11/17 04:02:53;;;;;;;51.90;28.88;;;;;;;10.05;95.08;97874.38;6143958;23;20341;-82
2022/11/17 04:05:20;;;;;;;32.53;17.20;;;;;;;10.09;94.93;97873.81;6147298;23;20021;-83
2022/11/17 04:07:47;;;;;;;14.27;8.02;;;;;;;10.10;94.69;97880.81;6149670;23;20021;-83
2022/11/17 04:10:25;;;;;;;7.38;4.10;;;;;;;10.13;94.59;97890.22;6124787;23;20021;-82
2022/11/17 04:15:57;;;;;;;7.18;4.20;;;;;;;10.10;95.34;97891.41;6130748;23;20013;-82
2022/11/17 04:18:24;;;;;;;5.78;3.65;;;;;;;10.12;95.31;97886.72;6103893;23;20017;-82
2022/11/17 04:20:53;;;;;;;6.45;3.90;;;;;;;10.14;95.14;97891.84;6124221;23;21538;-82
2022/11/17 04:23:20;;;;;;;6.30;3.80;;;;;;;10.15;95.24;97882.88;6099997;23;20024;-82
2022/11/17 04:28:36;;;;;;;5.85;3.97;;;;;;;10.09;95.43;97871.19;6171725;23;20452;-82
2022/11/17 04:31:07;;;;;;;10.30;4.40;;;;;;;10.07;95.40;97859.09;6173559;22;20055;-83
2022/11/17 04:33:35;;;;;;;4.57;3.58;;;;;;;10.10;95.65;97864.88;6147818;23;20463;-81
2022/11/17 04:36:05;;;;;;;9.25;4.72;;;;;;;10.07;95.62;97845.84;6150135;23;20083;-81
2022/11/17 04:38:32;;;;;;;6.60;4.47;;;;;;;10.09;95.22;97841.19;6149073;23;20025;-81
2022/11/17 04:43:46;;;;;;;8.23;6.22;;;;;;;10.08;95.51;97837.72;6124418;23;20021;-82
2022/11/17 04:46:14;;;;;;;10.45;5.63;;;;;;;10.13;95.00;97839.84;6123421;23;20025;-81
2022/11/17 04:48:41;;;;;;;8.93;5.07;;;;;;;10.13;95.07;97832.69;6173601;23;20017;-81
2022/11/17 04:51:08;;;;;;;6.22;3.80;;;;;;;10.16;94.87;97826.19;6124528;23;20028;-83
2022/11/17 04:53:34;;;;;;;7.63;3.72;;;;;;;10.16;95.09;97832.31;6123626;23;20025;-82
2022/11/17 04:56:03;;;;;;;5.65;3.88;;;;;;;10.17;94.97;97833.13;6147757;23;20368;-82
2022/11/17 04:58:30;;;;;;;8.50;4.20;;;;;;;10.17;95.42;97833.13;6148191;23;20021;-82
2022/11/17 05:01:11;;;;;;;4.30;3.60;;;;;;;10.15;95.49;97830.69;6168781;22;20695;-82
2022/11/17 05:03:58;;;;;;;4.68;3.85;;;;;;;10.03;96.18;97829.50;6197303;23;20021;-84
2022/11/17 05:06:27;;;;;;;9.93;4.25;;;;;;;10.15;95.62;97840.44;6148637;23;20021;-84
2022/11/17 05:08:55;;;;;;;8.20;4.35;;;;;;;10.16;95.58;97829.66;6171625;23;20021;-84
2022/11/17 05:14:14;;;;;;;7.53;4.65;;;;;;;10.18;95.77;97832.16;6123642;23;20033;-83
2022/11/17 05:19:41;;;;;;;8.98;4.68;;;;;;;10.17;95.65;97831.31;6123123;23;20025;-82
2022/11/17 05:24:53;;;;;;;11.32;4.47;;;;;;;10.16;95.67;97829.66;6121680;23;19932;-82
2022/11/17 05:27:21;;;;;;;6.63;3.78;;;;;;;10.19;95.89;97829.31;6171202;23;20028;-82
2022/11/17 05:29:48;;;;;;;6.53;3.88;;;;;;;10.18;95.93;97830.31;6172418;23;20029;-81
2022/11/17 05:32:15;;;;;;;4.90;3.80;;;;;;;10.18;96.06;97832.16;6167305;23;20021;-82
2022/11/17 05:34:42;;;;;;;9.85;3.60;;;;;;;10.18;96.03;97827.66;6124190;23;20048;-83
2022/11/17 05:37:08;;;;;;;6.25;3.35;;;;;;;10.20;96.04;97830.13;6124500;23;20445;-82
2022/11/17 05:39:35;;;;;;;9.25;3.47;;;;;;;10.16;96.61;97842.94;6148395;23;20031;-82
2022/11/17 05:42:02;;;;;;;7.22;3.30;;;;;;;10.16;96.71;97844.78;6123913;23;20060;-82
2022/11/17 05:44:29;;;;;;;6.47;3.22;;;;;;;10.20;96.44;97851.34;6149171;23;20024;-82
2022/11/17 05:46:56;;;;;;;4.78;3.10;;;;;;;10.17;96.65;97844.56;6172316;23;20384;-82
2022/11/17 05:49:23;;;;;;;6.28;2.80;;;;;;;10.18;96.47;97842.75;6124934;23;20028;-82
2022/11/17 05:51:49;;;;;;;4.20;3.17;;;;;;;10.17;96.60;97849.06;6173130;23;20027;-81
2022/11/17 05:54:19;;;;;;;5.78;3.17;;;;;;;10.18;96.56;97840.13;6148378;23;20028;-82
2022/11/17 05:56:51;;;;;;;8.23;3.65;;;;;;;10.14;96.47;97842.28;6148567;23;20095;-82
2022/11/17 05:59:31;;;;;;;3.80;2.80;;;;;;;10.14;96.28;97836.16;6148694;23;20032;-83
2022/11/17 06:01:59;;;;;;;4.55;3.05;;;;;;;10.14;96.55;97834.34;6147125;23;20396;-80
2022/11/17 06:04:26;;;;;;;6.60;3.00;;;;;;;10.16;96.35;97836.81;6172184;23;20029;-80
2022/11/17 06:06:57;;;;;;;6.38;3.08;;;;;;;10.19;96.13;97839.09;6148861;23;20021;-80
2022/11/17 06:09:26;;;;;;;5.68;3.40;;;;;;;10.16;96.57;97840.28;6148569;23;20052;-79
2022/11/17 06:11:53;;;;;;;5.45;3.40;;;;;;;10.16;96.64;97837.63;6149569;23;20021;-80
2022/11/17 06:14:19;;;;;;;4.90;3.20;;;;;;;10.16;96.95;97831.50;6149940;23;20032;-80
2022/11/17 06:16:47;;;;;;;4.25;3.15;;;;;;;10.17;96.67;97841.09;6175428;23;20025;-79
2022/11/17 06:19:36;;;;;;;7.78;3.42;;;;;;;10.08;96.78;97842.22;6176817;23;20021;-79
2022/11/17 06:22:03;;;;;;;5.97;3.50;;;;;;;10.20;96.40;97844.22;6141829;23;20479;-79
2022/11/17 06:24:39;;;;;;;7.57;3.90;;;;;;;10.21;96.40;97845.88;6077173;23;20364;-80
2022/11/17 06:27:06;;;;;;;6.82;4.03;;;;;;;10.20;96.45;97854.00;6125009;23;20040;-79
2022/11/17 06:29:33;;;;;;;5.18;3.03;;;;;;;10.22;96.39;97858.09;6172413;23;20026;-79
2022/11/17 06:32:06;;;;;;;;;;;;;;;10.03;98.07;97866.59;6122222;23;20024;-79
2022/11/17 06:34:33;;;;;;;5.40;3.35;;;;;;;10.20;96.76;97877.84;6124821;23;19916;-79
2022/11/17 06:37:00;;;;;;;3.83;3.10;;;;;;;10.22;96.61;97866.06;6174797;23;20040;-80
2022/11/17 06:39:27;;;;;;;7.10;3.30;;;;;;;10.25;96.30;97877.31;6124895;23;20092;-79
2022/11/17 06:41:53;;;;;;;4.35;2.95;;;;;;;10.27;96.38;97870.00;6149142;23;20021;-79
2022/11/17 06:44:20;;;;;;;3.83;3.13;;;;;;;10.26;96.68;97842.66;6150106;23;20369;-82
2022/11/17 06:46:47;;;;;;;4.72;3.17;;;;;;;10.28;96.29;97851.31;6150345;23;20013;-79
2022/11/17 06:49:15;;;;;;;5.57;3.15;;;;;;;10.27;96.91;97846.97;6173719;23;20025;-80
2022/11/17 06:51:41;;;;;;;4.20;3.03;;;;;;;10.30;96.27;97848.44;6149264;23;20084;-80
2022/11/17 06:54:13;;;;;;;4.68;3.05;;;;;;;10.33;96.22;97856.03;6174999;23;20032;-79
2022/11/17 06:56:41;;;;;;;6.07;2.60;;;;;;;10.34;96.33;97863.00;6125390;23;20033;-79
2022/11/17 06:59:07;;;;;;;7.82;3.08;;;;;;;10.38;96.23;97866.94;6148877;23;20462;-79
2022/11/17 07:01:36;;;;;;;6.20;2.58;;;;;;;10.39;95.93;97861.44;6148857;23;20096;-80
2022/11/17 07:04:02;;;;;;;4.50;2.90;;;;;;;10.41;96.13;97851.47;6150101;23;20097;-82
2022/11/17 07:06:30;;;;;;;4.60;2.55;;;;;;;10.45;96.00;97851.94;6197845;23;20083;-79
2022/11/17 07:08:57;;;;;;;4.72;2.50;;;;;;;10.44;95.96;97852.94;6198020;22;20041;-79
2022/11/17 07:11:24;;;;;;;3.28;2.60;;;;;;;10.43;95.88;97843.31;6174222;23;20095;-80
2022/11/17 07:13:50;;;;;;;5.00;2.35;;;;;;;10.44;95.88;97834.38;6125211;23;20017;-79
2022/11/17 07:16:19;;;;;;;4.45;2.72;;;;;;;10.45;95.93;97829.88;6173581;23;20025;-80
2022/11/17 07:18:51;;;;;;;5.00;2.90;;;;;;;10.42;95.86;97828.41;6150424;23;20029;-80
2022/11/17 07:21:18;;;;;;;6.13;3.28;;;;;;;10.42;96.27;97825.78;6173707;23;20045;-79
2022/11/17 07:23:45;;;;;;;5.50;2.95;;;;;;;10.42;96.32;97820.47;6149623;23;20096;-80
2022/11/17 07:26:13;;;;;;;5.05;3.13;;;;;;;10.43;96.34;97838.00;6199154;23;20032;-80
2022/11/17 07:28:39;;;;;;;5.40;3.35;;;;;;;10.44;96.37;97829.06;6174138;23;20061;-80
2022/11/17 07:31:07;;;;;;;4.57;2.55;;;;;;;10.47;96.32;97828.69;6150014;23;20029;-81
2022/11/17 07:33:35;;;;;;;4.60;2.78;;;;;;;10.48;96.19;97825.06;6173331;23;20048;-79
2022/11/17 07:36:04;;;;;;;6.68;2.78;;;;;;;10.49;96.19;97825.88;6199059;23;20457;-80
2022/11/17 07:38:32;;;;;;;3.25;2.58;;;;;;;10.49;96.17;97834.66;6124731;23;20021;-80
2022/11/17 07:41:00;;;;;;;4.57;2.40;;;;;;;10.50;96.24;97827.50;6173436;23;20025;-80
2022/11/17 07:43:26;;;;;;;8.02;3.47;;;;;;;10.50;96.05;97835.47;6174338;23;20353;-79
2022/11/17 07:45:53;;;;;;;6.30;3.42;;;;;;;10.50;96.18;97836.28;6172776;23;20400;-80
2022/11/17 07:48:20;;;;;;;7.30;3.10;;;;;;;10.52;96.34;97836.09;6124493;23;20020;-80
2022/11/17 07:50:47;;;;;;;6.47;3.05;;;;;;;10.54;96.19;97826.13;6173598;23;20445;-80
2022/11/17 07:53:14;;;;;;;9.88;3.47;;;;;;;10.55;96.12;97835.72;6145256;23;20025;-79
2022/11/17 07:55:41;;;;;;;6.88;3.58;;;;;;;10.58;96.10;97840.66;6148478;23;20021;-79
2022/11/17 07:58:08;;;;;;;5.10;3.42;;;;;;;10.59;96.29;97829.88;6175994;23;20017;-80
2022/11/17 08:00:35;;;;;;;6.07;3.75;;;;;;;10.60;96.14;97836.81;6173817;23;20453;-80
2022/11/17 08:03:03;;;;;;;6.68;3.33;;;;;;;10.61;95.92;97838.47;6173160;23;20021;-80
2022/11/17 08:05:34;;;;;;;3.50;2.75;;;;;;;10.62;96.06;97840.13;6174823;23;20075;-80
2022/11/17 08:08:08;;;;;;;5.93;3.28;;;;;;;10.63;96.09;97825.00;6120150;23;20021;-79
2022/11/17 08:10:35;;;;;;;5.13;3.53;;;;;;;10.64;95.90;97826.66;6173626;23;20021;-80
2022/11/17 08:13:02;;;;;;;7.45;3.70;;;;;;;10.65;95.99;97828.31;6148607;23;20035;-83
2022/11/17 08:15:29;;;;;;;7.47;4.00;;;;;;;10.68;96.06;97827.09;6150107;23;20449;-80
2022/11/17 08:17:57;;;;;;;6.35;4.13;;;;;;;10.71;95.85;97840.00;6147787;23;20049;-80
2022/11/17 08:20:26;;;;;;;9.65;3.78;;;;;;;10.72;96.04;97842.50;6148907;23;20472;-80
2022/11/17 08:22:54;;;;;;;3.63;3.05;;;;;;;10.72;95.72;97845.13;6099757;23;20035;-80
2022/11/17 08:25:22;;;;;;;5.18;3.10;;;;;;;10.74;95.88;97842.31;6149198;23;20055;-80
2022/11/17 08:27:52;;;;;;;4.47;3.00;;;;;;;10.75;95.96;97841.28;6173656;23;20497;-80
2022/11/17 08:30:19;;;;;;;5.80;3.30;;;;;;;10.77;95.89;97847.25;6124188;23;20091;-80
2022/11/17 08:32:51;;;;;;;4.15;2.70;;;;;;;10.77;95.79;97845.41;6148414;23;20025;-80
2022/11/17 08:35:19;;;;;;;4.88;2.78;;;;;;;10.81;96.05;97851.16;6148223;23;20021;-80
2022/11/17 08:37:46;;;;;;;6.03;2.70;;;;;;;10.83;96.10;97844.66;6148944;23;20027;-79
2022/11/17 08:40:14;;;;;;;6.57;3.35;;;;;;;10.85;96.05;97855.09;6174006;22;20013;-80
2022/11/17 08:42:40;;;;;;;5.10;2.85;;;;;;;10.86;96.21;97844.31;6123095;23;20152;-79
2022/11/17 08:45:08;;;;;;;4.32;2.50;;;;;;;10.89;96.38;97848.41;6173383;23;20021;-80
2022/11/17 08:47:35;;;;;;;3.58;2.25;;;;;;;10.89;96.20;97853.72;6125097;23;20369;-80
2022/11/17 08:50:04;;;;;;;4.68;2.55;;;;;;;10.92;96.11;97853.34;6172919;23;20282;-80
2022/11/17 08:52:31;;;;;;;3.45;2.42;;;;;;;10.92;96.29;97853.34;6174998;23;20056;-80
2022/11/17 08:54:58;;;;;;;4.43;2.40;;;;;;;10.93;96.41;97865.59;6147871;23;20025;-81
2022/11/17 08:57:25;;;;;;;5.50;1.83;;;;;;;10.97;96.07;97866.88;6149520;23;20079;-80
2022/11/17 08:59:52;;;;;;;2.78;1.83;;;;;;;10.98;96.27;97862.41;6172648;22;20023;-80
2022/11/17 09:02:18;;;;;;;5.72;2.40;;;;;;;11.00;96.24;97866.50;6123436;23;20357;-81
2022/11/17 09:04:46;;;;;;;6.43;2.20;;;;;;;11.01;96.19;97862.84;6149495;23;20017;-80
2022/11/17 09:07:13;;;;;;;4.07;2.35;;;;;;;11.03;96.05;97863.47;6173409;22;20020;-80
2022/11/17 09:09:40;;;;;;;3.05;2.17;;;;;;;11.06;95.97;97867.59;6123940;23;20033;-80
2022/11/17 09:12:07;;;;;;;4.50;2.08;;;;;;;11.05;96.13;97861.47;6149157;23;20021;-80
2022/11/17 09:14:34;;;;;;;4.20;2.30;;;;;;;11.08;96.16;97866.38;6148815;23;20461;-81
2022/11/17 09:17:00;;;;;;;5.35;2.70;;;;;;;11.09;96.31;97864.56;6171795;23;20028;-81
2022/11/17 09:19:27;;;;;;;3.72;2.08;;;;;;;11.11;96.14;97867.84;6124501;23;20021;-80
2022/11/17 09:21:54;;;;;;;4.43;2.25;;;;;;;11.12;96.42;97866.00;6123778;23;20318;-80
2022/11/17 09:24:21;;;;;;;6.45;2.10;;;;;;;11.13;96.17;97865.03;6172932;22;20066;-82
2022/11/17 09:26:48;;;;;;;3.60;1.80;;;;;;;11.14;96.24;97871.97;6148807;23;20013;-80
2022/11/17 09:29:14;;;;;;;6.18;2.40;;;;;;;11.14;96.39;97870.13;6124164;23;20033;-80
2022/11/17 09:31:41;;;;;;;5.13;2.70;;;;;;;11.16;96.21;97880.56;6148542;23;20390;-80
2022/11/17 09:34:08;;;;;;;4.30;2.30;;;;;;;11.15;96.12;97877.09;6173023;22;20041;-80
2022/11/17 09:36:35;;;;;;;4.63;2.80;;;;;;;11.16;96.41;97886.72;6124381;23;20084;-80
2022/11/17 09:39:03;;;;;;;3.13;2.42;;;;;;;11.18;96.35;97884.69;6148522;23;20043;-82
2022/11/17 09:41:32;;;;;;;6.78;2.40;;;;;;;11.18;96.08;97890.00;6123831;23;20044;-80
2022/11/17 09:44:25;;;;;;;3.42;2.00;;;;;;;11.19;96.06;97891.63;6165075;23;20021;-81
2022/11/17 09:47:20;;;;;;;2.45;1.90;;;;;;;11.14;96.57;97887.91;6076771;23;20400;-80
2022/11/17 09:50:03;;;;;;;5.18;2.05;;;;;;;11.19;96.42;97888.16;6108220;23;20041;-80
2022/11/17 09:52:40;;;;;;;2.83;2.10;;;;;;;11.27;96.65;97888.03;6077224;23;20019;-80
2022/11/17 09:55:07;;;;;;;2.75;1.52;;;;;;;11.33;96.44;97878.53;6172927;23;20025;-80
2022/11/17 09:57:43;;;;;;;7.22;2.45;;;;;;;11.32;96.19;97874.19;6175770;23;20017;-80
2022/11/17 10:00:21;;;;;;;5.03;2.20;;;;;;;11.35;95.93;97879.13;6101974;23;20040;-80
2022/11/17 10:02:49;;;;;;;3.65;1.90;;;;;;;11.43;96.28;97874.53;6149653;23;20484;-82
2022/11/17 10:05:34;;;;;;;6.03;1.83;;;;;;;11.39;96.15;97881.22;6125693;23;20021;-81
2022/11/17 10:08:07;;;;;;;3.92;1.55;;;;;;;11.47;95.90;97873.16;6125540;23;20020;-80
2022/11/17 10:10:49;;;;;;;2.13;1.60;;;;;;;11.45;95.90;97875.19;6150746;23;20044;-80
2022/11/17 10:13:32;;;;;;;3.30;1.88;;;;;;;11.49;96.18;97879.09;6149789;23;20028;-80
2022/11/17 10:15:59;;;;;;;;;;;;;;;11.34;96.57;97874.84;6123412;23;20087;-80
2022/11/17 10:18:26;;;;;;;4.43;1.60;;;;;;;11.48;96.41;97866.81;6199351;22;20412;-80
2022/11/17 10:20:53;;;;;;;5.82;1.70;;;;;;;11.52;96.57;97875.22;6174850;23;20028;-80
2022/11/17 10:23:21;;;;;;;3.80;1.20;;;;;;;11.52;96.04;97881.38;6150397;23;20029;-80
2022/11/17 10:25:55;;;;;;;3.90;1.35;;;;;;;11.48;95.91;97888.09;6126506;23;20024;-80
2022/11/17 10:28:30;;;;;;;5.15;1.45;;;;;;;11.47;95.84;97885.59;6172904;23;20032;-80
2022/11/17 10:31:23;;;;;;;5.22;1.30;;;;;;;11.39;95.47;97886.53;6174779;23;20017;-80
2022/11/17 10:33:50;;;;;;;4.00;1.00;;;;;;;11.47;95.60;97893.56;6035882;23;20056;-82
2022/11/17 10:36:25;;;;;;;9.25;1.92;;;;;;;11.47;96.89;97901.53;6224427;23;20083;-80
2022/11/17 10:38:53;;;;;;;5.28;1.40;;;;;;;11.47;96.68;97904.19;6100244;23;20024;-80
2022/11/17 10:41:22;;;;;;;4.82;1.67;;;;;;;11.44;96.51;97908.06;6174896;23;20344;-80
2022/11/17 10:44:00;;;;;;;6.65;1.70;;;;;;;11.38;96.47;97908.81;6150298;23;20029;-80
2022/11/17 10:46:28;;;;;;;4.18;1.30;;;;;;;11.44;96.66;97900.09;6124254;23;20362;-80
2022/11/17 10:49:23;;;;;;;3.60;1.20;;;;;;;11.35;96.02;97900.38;6081279;23;20091;-80
2022/11/17 10:52:02;;;;;;;5.78;1.35;;;;;;;11.36;95.83;97916.16;6147546;23;20056;-80
2022/11/17 10:54:29;;;;;;;8.73;1.58;;;;;;;11.45;96.26;97892.97;6127365;23;20021;-80
2022/11/17 10:56:58;;;;;;;6.57;1.33;;;;;;;11.44;96.06;97888.63;6148721;23;20075;-81
2022/11/17 10:59:39;;;;;;;8.38;1.35;;;;;;;11.40;96.47;97898.84;6125745;23;20021;-80
2022/11/17 11:02:28;;;;;;;8.75;1.30;;;;;;;11.33;96.64;97897.94;6148296;23;20044;-81
2022/11/17 11:05:07;;;;;;;7.57;1.35;;;;;;;11.37;96.54;97890.41;6101583;23;20021;-80
2022/11/17 11:07:34;;;;;;;5.82;1.23;;;;;;;11.44;96.44;97900.09;6174443;23;20036;-80
2022/11/17 11:10:17;;;;;;;13.50;1.48;;;;;;;11.45;96.67;97892.97;6125472;23;20040;-80
2022/11/17 11:12:52;;;;;;;6.63;0.95;;;;;;;11.41;96.19;97889.84;6122939;23;20033;-80
2022/11/17 11:15:20;;;;;;;5.10;1.50;;;;;;;11.43;96.36;97918.91;6124287;23;20017;-80
2022/11/17 11:17:47;;;;;;;4.55;1.08;;;;;;;11.37;97.37;97907.19;6174220;23;20027;-80
2022/11/17 11:20:17;;;;;;;9.88;1.52;;;;;;;11.36;97.01;97942.72;6149542;23;20016;-79
2022/11/17 11:22:44;;;;;;;5.38;1.27;;;;;;;11.31;98.33;97934.50;6173733;23;20044;-79
2022/11/17 11:25:23;;;;;;;7.68;1.60;;;;;;;11.30;97.92;97927.53;6125309;23;20021;-79
2022/11/17 11:28:10;;;;;;;10.05;2.25;;;;;;;11.25;98.14;97927.28;6148895;23;20068;-79
2022/11/17 11:30:42;;;;;;;4.25;1.10;;;;;;;11.30;97.51;97940.84;6125205;23;20028;-79
2022/11/17 11:33:22;;;;;;;3.22;0.90;;;;;;;11.31;97.78;97942.47;6123079;23;20019;-80
2022/11/17 11:36:13;;;;;;;6.70;1.33;;;;;;;11.26;97.87;97926.25;6099871;23;20013;-80
2022/11/17 11:38:43;;;;;;;3.95;1.33;;;;;;;11.37;97.64;97940.88;6101453;23;20021;-79
2022/11/17 11:41:20;;;;;;;5.32;1.20;;;;;;;11.35;97.59;97940.25;6174173;23;20562;-80
2022/11/17 11:44:01;;;;;;;5.75;1.60;;;;;;;11.37;97.03;97936.44;6174144;22;20029;-80
2022/11/17 11:47:02;;;;;;;4.00;1.65;;;;;;;11.33;96.71;97935.13;6079297;23;20051;-80
2022/11/17 11:49:36;;;;;;;3.05;1.20;;;;;;;11.43;96.86;97934.84;6074801;23;20024;-80
2022/11/17 11:52:05;;;;;;;4.68;1.15;;;;;;;11.46;97.01;97943.25;6172716;23;20345;-80
2022/11/17 11:54:44;;;;;;;4.53;1.13;;;;;;;11.43;96.73;97937.50;6125011;23;20021;-80
2022/11/17 11:57:21;;;;;;;3.92;0.90;;;;;;;11.47;96.73;97933.44;6001801;23;20440;-79
2022/11/17 11:59:52;;;;;;;3.95;1.00;;;;;;;11.49;96.68;97932.25;6059882;23;20054;-79
2022/11/17 12:02:45;;;;;;;1.70;0.88;;;;;;;11.47;96.72;97934.28;6014923;23;20026;-80
2022/11/17 12:05:18;;;;;;;3.55;1.20;;;;;;;11.50;96.89;97933.09;6037069;23;20114;-82
2022/11/17 12:07:57;;;;;;;;;;;;;;;11.39;97.06;97922.94;6059234;23;20090;-79
2022/11/17 12:10:35;;;;;;;4.63;1.15;;;;;;;11.49;96.63;97918.94;6083434;23;19925;-80
2022/11/17 12:13:03;;;;;;;9.00;1.50;;;;;;;11.59;96.83;97917.81;6107713;23;20037;-79
2022/11/17 12:15:32;;;;;;;8.98;1.83;;;;;;;11.62;96.87;97912.13;6060253;23;20026;-79
2022/11/17 12:18:00;;;;;;;4.38;1.35;;;;;;;11.68;97.38;97916.72;6058901;23;20030;-79
2022/11/17 12:20:29;;;;;;;6.22;1.58;;;;;;;11.72;97.21;97921.44;5986305;23;20139;-80
2022/11/17 12:23:21;;;;;;;4.70;1.70;;;;;;;11.74;97.09;97919.41;6054845;23;20494;-80
2022/11/17 12:25:52;;;;;;;10.20;1.30;;;;;;;11.74;96.62;97921.25;6080875;23;20029;-80